BAW795 LJLJ-EGLL
Flight info
| Callsign | BAW795 |
|---|---|
| Flight time | 1h 57m |
| Altitude | 36000 |
| Route | LUPIX DCT EBITI DCT INGID DCT SIMBA DCT MAMOR DCT INBED DCT BOMBI DCT ADKUV DCT LENDO DCT SOGRI DCT DENUT L608 LOGAN |
| Aircraft | A320/M-SDE3FGHIRWY/LB1 |
Departure
| Time | 2026-05-08 19:01 |
|---|---|
| Airport | Ljubljana Jože Pučnik Airport (LJLJ) |
Arrival
| Time | 2026-05-08 20:58 |
|---|---|
| Airport | London Heathrow Airport (EGLL) |
| Time | Latitude | Longitude | Altitude | Speed | Heading |
|---|---|---|---|---|---|
| 2026-05-08 18:34 | 46.23003 | 14.45466 | 1264 ft | 0 kts | 37° |
| 2026-05-08 18:50 | 46.22999 | 14.45462 | 1258 ft | 3 kts | 37° |
| 2026-05-08 18:50 | 46.22982 | 14.45444 | 1267 ft | 4 kts | 39° |
| 2026-05-08 18:50 | 46.22964 | 14.45417 | 1264 ft | 4 kts | 70° |
| 2026-05-08 18:51 | 46.22964 | 14.45388 | 1262 ft | 1 kts | 123° |
| 2026-05-08 18:51 | 46.22964 | 14.45387 | 1263 ft | 0 kts | 123° |
| 2026-05-08 18:54 | 46.22958 | 14.45399 | 1262 ft | 4 kts | 131° |
| 2026-05-08 18:54 | 46.22931 | 14.45406 | 1262 ft | 4 kts | 209° |
| 2026-05-08 18:54 | 46.22894 | 14.45367 | 1262 ft | 8 kts | 216° |
| 2026-05-08 18:54 | 46.22839 | 14.45326 | 1264 ft | 10 kts | 176° |
| 2026-05-08 18:55 | 46.22718 | 14.45539 | 1259 ft | 18 kts | 126° |
| 2026-05-08 18:55 | 46.22635 | 14.45702 | 1262 ft | 20 kts | 126° |
| 2026-05-08 18:55 | 46.22554 | 14.45861 | 1254 ft | 19 kts | 126° |
| 2026-05-08 18:56 | 46.22469 | 14.46026 | 1249 ft | 21 kts | 127° |
| 2026-05-08 18:56 | 46.22381 | 14.46198 | 1236 ft | 21 kts | 126° |
| 2026-05-08 18:56 | 46.22299 | 14.46359 | 1233 ft | 21 kts | 126° |
| 2026-05-08 18:56 | 46.22212 | 14.46528 | 1224 ft | 22 kts | 127° |
| 2026-05-08 18:57 | 46.22128 | 14.46692 | 1220 ft | 22 kts | 126° |
| 2026-05-08 18:57 | 46.22038 | 14.46868 | 1216 ft | 18 kts | 126° |
| 2026-05-08 18:57 | 46.21961 | 14.47020 | 1213 ft | 19 kts | 126° |
| 2026-05-08 18:57 | 46.21881 | 14.47177 | 1212 ft | 20 kts | 126° |
| 2026-05-08 18:58 | 46.21805 | 14.47325 | 1208 ft | 11 kts | 128° |
| 2026-05-08 18:58 | 46.21770 | 14.47392 | 1209 ft | 9 kts | 127° |
| 2026-05-08 18:58 | 46.21722 | 14.47486 | 1205 ft | 15 kts | 126° |
| 2026-05-08 18:58 | 46.21652 | 14.47604 | 1196 ft | 13 kts | 155° |
| 2026-05-08 18:59 | 46.21575 | 14.47549 | 1197 ft | 14 kts | 217° |
| 2026-05-08 18:59 | 46.21508 | 14.47470 | 1197 ft | 8 kts | 239° |
| 2026-05-08 18:59 | 46.21523 | 14.47413 | 1199 ft | 3 kts | 308° |
| 2026-05-08 18:59 | 46.21528 | 14.47404 | 1199 ft | 3 kts | 308° |
| 2026-05-08 19:00 | 46.21639 | 14.47185 | 1209 ft | 62 kts | 307° |
| 2026-05-08 19:00 | 46.22027 | 14.46427 | 1230 ft | 123 kts | 306° |
| 2026-05-08 19:00 | 46.22635 | 14.45246 | 1264 ft | 168 kts | 307° |
| 2026-05-08 19:00 | 46.23350 | 14.43834 | 1745 ft | 178 kts | 306° |
| 2026-05-08 19:01 | 46.23921 | 14.42242 | 2398 ft | 183 kts | 279° |
| 2026-05-08 19:01 | 46.23695 | 14.40436 | 2769 ft | 195 kts | 234° |
| 2026-05-08 19:01 | 46.22591 | 14.39241 | 3068 ft | 211 kts | 194° |
| 2026-05-08 19:01 | 46.21054 | 14.39119 | 3363 ft | 236 kts | 176° |
| 2026-05-08 19:02 | 46.19361 | 14.39124 | 4046 ft | 241 kts | 183° |
| 2026-05-08 19:02 | 46.17739 | 14.38969 | 5187 ft | 233 kts | 178° |
| 2026-05-08 19:02 | 46.16153 | 14.39544 | 5677 ft | 251 kts | 150° |
| 2026-05-08 19:02 | 46.14892 | 14.41388 | 6149 ft | 270 kts | 117° |
| 2026-05-08 19:03 | 46.14229 | 14.43971 | 6890 ft | 277 kts | 108° |
| 2026-05-08 19:03 | 46.13628 | 14.46626 | 7688 ft | 281 kts | 108° |
| 2026-05-08 19:03 | 46.13017 | 14.49329 | 8480 ft | 286 kts | 107° |
| 2026-05-08 19:03 | 46.12393 | 14.52067 | 9294 ft | 289 kts | 108° |
| 2026-05-08 19:04 | 46.11987 | 14.54910 | 10062 ft | 292 kts | 89° |
| 2026-05-08 19:04 | 46.12334 | 14.57814 | 10551 ft | 304 kts | 66° |
| 2026-05-08 19:04 | 46.13567 | 14.60388 | 10744 ft | 324 kts | 40° |
| 2026-05-08 19:04 | 46.15586 | 14.61969 | 10961 ft | 341 kts | 13° |
| 2026-05-08 19:05 | 46.17963 | 14.62052 | 11483 ft | 347 kts | 347° |
| 2026-05-08 19:05 | 46.20173 | 14.60618 | 12041 ft | 352 kts | 326° |
| 2026-05-08 19:05 | 46.22254 | 14.58699 | 12668 ft | 356 kts | 328° |
| 2026-05-08 19:05 | 46.24397 | 14.56865 | 13300 ft | 361 kts | 329° |
| 2026-05-08 19:06 | 46.26592 | 14.55060 | 13958 ft | 364 kts | 330° |
| 2026-05-08 19:06 | 46.28813 | 14.53250 | 14537 ft | 368 kts | 330° |
| 2026-05-08 19:06 | 46.31053 | 14.51412 | 15138 ft | 371 kts | 329° |
| 2026-05-08 19:06 | 46.33293 | 14.49548 | 15732 ft | 374 kts | 329° |
| 2026-05-08 19:07 | 46.35547 | 14.47650 | 16273 ft | 377 kts | 329° |
| 2026-05-08 19:07 | 46.37824 | 14.45714 | 16820 ft | 381 kts | 329° |
| 2026-05-08 19:07 | 46.40092 | 14.43779 | 17368 ft | 384 kts | 329° |
| 2026-05-08 19:07 | 46.42408 | 14.41800 | 17910 ft | 388 kts | 328° |
| 2026-05-08 19:08 | 46.44739 | 14.39807 | 18447 ft | 391 kts | 328° |
| 2026-05-08 19:08 | 46.47093 | 14.37792 | 18954 ft | 394 kts | 328° |
| 2026-05-08 19:08 | 46.49470 | 14.35763 | 19466 ft | 397 kts | 328° |
| 2026-05-08 19:08 | 46.51863 | 14.33717 | 19978 ft | 401 kts | 328° |
| 2026-05-08 19:09 | 46.54269 | 14.31656 | 20484 ft | 404 kts | 327° |
| 2026-05-08 19:09 | 46.56701 | 14.29573 | 20960 ft | 407 kts | 327° |
| 2026-05-08 19:09 | 46.59153 | 14.27476 | 21434 ft | 410 kts | 327° |
| 2026-05-08 19:09 | 46.61621 | 14.25361 | 21896 ft | 412 kts | 327° |
| 2026-05-08 19:10 | 46.64107 | 14.23225 | 22324 ft | 415 kts | 327° |
| 2026-05-08 19:10 | 46.66575 | 14.21105 | 22761 ft | 419 kts | 327° |
| 2026-05-08 19:10 | 46.69096 | 14.18936 | 23191 ft | 422 kts | 327° |
| 2026-05-08 19:10 | 46.71638 | 14.16743 | 23627 ft | 425 kts | 327° |
| 2026-05-08 19:11 | 46.73391 | 14.15229 | 23879 ft | 427 kts | 327° |
| 2026-05-08 19:11 | 46.75957 | 14.13010 | 24263 ft | 429 kts | 327° |
| 2026-05-08 19:11 | 46.78526 | 14.10786 | 24620 ft | 431 kts | 327° |
| 2026-05-08 19:11 | 46.81111 | 14.08546 | 24981 ft | 433 kts | 327° |
| 2026-05-08 19:12 | 46.83713 | 14.06285 | 25339 ft | 436 kts | 327° |
| 2026-05-08 19:12 | 46.86324 | 14.04019 | 25694 ft | 438 kts | 327° |
| 2026-05-08 19:12 | 46.88950 | 14.01739 | 26048 ft | 440 kts | 326° |
| 2026-05-08 19:12 | 46.91592 | 13.99448 | 26474 ft | 440 kts | 327° |
| 2026-05-08 19:13 | 46.94229 | 13.97158 | 26876 ft | 441 kts | 327° |
| 2026-05-08 19:13 | 46.96838 | 13.94886 | 27243 ft | 443 kts | 326° |
| 2026-05-08 19:13 | 46.99496 | 13.92565 | 27606 ft | 445 kts | 326° |
| 2026-05-08 19:13 | 47.02156 | 13.90236 | 27973 ft | 447 kts | 326° |
| 2026-05-08 19:14 | 47.04834 | 13.87887 | 28313 ft | 449 kts | 326° |
| 2026-05-08 19:14 | 47.07522 | 13.85531 | 28743 ft | 449 kts | 326° |
| 2026-05-08 19:14 | 47.10204 | 13.83183 | 29255 ft | 448 kts | 326° |
| 2026-05-08 19:14 | 47.12880 | 13.80835 | 29765 ft | 447 kts | 325° |
| 2026-05-08 19:15 | 47.15543 | 13.78494 | 30253 ft | 446 kts | 325° |
| 2026-05-08 19:15 | 47.18200 | 13.76158 | 30672 ft | 445 kts | 325° |
| 2026-05-08 19:15 | 47.20853 | 13.73824 | 31093 ft | 444 kts | 325° |
| 2026-05-08 19:15 | 47.23501 | 13.71489 | 31522 ft | 443 kts | 324° |
| 2026-05-08 19:16 | 47.26147 | 13.69155 | 31955 ft | 443 kts | 326° |
| 2026-05-08 19:16 | 47.28907 | 13.67111 | 32347 ft | 446 kts | 331° |
| 2026-05-08 19:16 | 47.31684 | 13.65218 | 32739 ft | 446 kts | 330° |
| 2026-05-08 19:16 | 47.34503 | 13.63295 | 33145 ft | 446 kts | 330° |
| 2026-05-08 19:17 | 47.37322 | 13.61368 | 33590 ft | 445 kts | 330° |
| 2026-05-08 19:17 | 47.40130 | 13.59447 | 33996 ft | 445 kts | 330° |
| 2026-05-08 19:17 | 47.42928 | 13.57526 | 34352 ft | 444 kts | 330° |
| 2026-05-08 19:17 | 47.45741 | 13.55594 | 34659 ft | 444 kts | 330° |
| 2026-05-08 19:18 | 47.48546 | 13.53668 | 34996 ft | 444 kts | 330° |
| 2026-05-08 19:18 | 47.51342 | 13.51742 | 35332 ft | 442 kts | 331° |
| 2026-05-08 19:18 | 47.54130 | 13.49819 | 35657 ft | 441 kts | 331° |
| 2026-05-08 19:18 | 47.56913 | 13.47898 | 35960 ft | 440 kts | 331° |
| 2026-05-08 19:19 | 47.59690 | 13.45976 | 36061 ft | 442 kts | 330° |
| 2026-05-08 19:19 | 47.65338 | 13.42053 | 36085 ft | 450 kts | 330° |
| 2026-05-08 19:20 | 47.70058 | 13.38779 | 36077 ft | 451 kts | 330° |
| 2026-05-08 19:20 | 47.76669 | 13.34188 | 36072 ft | 451 kts | 330° |
| 2026-05-08 19:21 | 47.82354 | 13.30229 | 36061 ft | 451 kts | 330° |
| 2026-05-08 19:21 | 47.88048 | 13.26258 | 36074 ft | 451 kts | 330° |
| 2026-05-08 19:22 | 47.93729 | 13.22279 | 36094 ft | 451 kts | 330° |
| 2026-05-08 19:22 | 47.99403 | 13.18287 | 36088 ft | 450 kts | 330° |
| 2026-05-08 19:23 | 48.05023 | 13.14317 | 36086 ft | 450 kts | 330° |
| 2026-05-08 19:23 | 48.10685 | 13.10312 | 36077 ft | 450 kts | 330° |
| 2026-05-08 19:24 | 48.16342 | 13.06315 | 36079 ft | 450 kts | 330° |
| 2026-05-08 19:24 | 48.21980 | 13.02268 | 36087 ft | 447 kts | 326° |
| 2026-05-08 19:25 | 48.26977 | 12.96882 | 36080 ft | 441 kts | 317° |
| 2026-05-08 19:25 | 48.31781 | 12.91134 | 36095 ft | 441 kts | 317° |
| 2026-05-08 19:26 | 48.36578 | 12.85390 | 36095 ft | 441 kts | 317° |
| 2026-05-08 19:26 | 48.41375 | 12.79643 | 36090 ft | 441 kts | 317° |
| 2026-05-08 19:27 | 48.46167 | 12.73893 | 36087 ft | 441 kts | 317° |
| 2026-05-08 19:27 | 48.50950 | 12.68122 | 36091 ft | 440 kts | 317° |
| 2026-05-08 19:28 | 48.55706 | 12.62363 | 36092 ft | 440 kts | 317° |
| 2026-05-08 19:28 | 48.60485 | 12.56570 | 36094 ft | 440 kts | 317° |
| 2026-05-08 19:29 | 48.65264 | 12.50770 | 36104 ft | 440 kts | 317° |
| 2026-05-08 19:29 | 48.70040 | 12.44956 | 36100 ft | 440 kts | 317° |
| 2026-05-08 19:30 | 48.74809 | 12.39132 | 36099 ft | 440 kts | 317° |
| 2026-05-08 19:30 | 48.79578 | 12.33288 | 36101 ft | 440 kts | 317° |
| 2026-05-08 19:31 | 48.84309 | 12.27475 | 36116 ft | 440 kts | 317° |
| 2026-05-08 19:31 | 48.88781 | 12.21210 | 36124 ft | 434 kts | 306° |
| 2026-05-08 19:32 | 48.92048 | 12.13574 | 36118 ft | 431 kts | 298° |
| 2026-05-08 19:32 | 48.95169 | 12.05759 | 36116 ft | 431 kts | 298° |
| 2026-05-08 19:33 | 48.98282 | 11.97961 | 36119 ft | 431 kts | 298° |
| 2026-05-08 19:33 | 49.01370 | 11.90190 | 36127 ft | 432 kts | 298° |
| 2026-05-08 19:34 | 49.04473 | 11.82351 | 36122 ft | 432 kts | 298° |
| 2026-05-08 19:34 | 49.07578 | 11.74494 | 36122 ft | 432 kts | 298° |
| 2026-05-08 19:35 | 49.10671 | 11.66633 | 36120 ft | 432 kts | 298° |
| 2026-05-08 19:35 | 49.13242 | 11.60080 | 36122 ft | 432 kts | 298° |
| 2026-05-08 19:36 | 49.16332 | 11.52183 | 36127 ft | 432 kts | 298° |
| 2026-05-08 19:36 | 49.19412 | 11.44282 | 36126 ft | 433 kts | 298° |
| 2026-05-08 19:37 | 49.22498 | 11.36362 | 36113 ft | 433 kts | 298° |
| 2026-05-08 19:37 | 49.25575 | 11.28429 | 36116 ft | 433 kts | 298° |
| 2026-05-08 19:38 | 49.28627 | 11.20534 | 36129 ft | 434 kts | 298° |
| 2026-05-08 19:38 | 49.31701 | 11.12572 | 36140 ft | 434 kts | 298° |
| 2026-05-08 19:39 | 49.34764 | 11.04602 | 36142 ft | 434 kts | 298° |
| 2026-05-08 19:39 | 49.37811 | 10.96620 | 36144 ft | 434 kts | 298° |
| 2026-05-08 19:40 | 49.40738 | 10.88507 | 36144 ft | 433 kts | 295° |
| 2026-05-08 19:40 | 49.43398 | 10.80209 | 36136 ft | 433 kts | 294° |
| 2026-05-08 19:41 | 49.45981 | 10.71855 | 36146 ft | 432 kts | 293° |
| 2026-05-08 19:41 | 49.48500 | 10.63450 | 36128 ft | 432 kts | 293° |
| 2026-05-08 19:42 | 49.50987 | 10.55014 | 36118 ft | 433 kts | 293° |
| 2026-05-08 19:42 | 49.53466 | 10.46625 | 36115 ft | 433 kts | 293° |
| 2026-05-08 19:43 | 49.55967 | 10.38175 | 36114 ft | 433 kts | 293° |
| 2026-05-08 19:43 | 49.58463 | 10.29719 | 36128 ft | 433 kts | 293° |
| 2026-05-08 19:44 | 49.60952 | 10.21258 | 36129 ft | 433 kts | 293° |
| 2026-05-08 19:44 | 49.63435 | 10.12788 | 36127 ft | 433 kts | 292° |
| 2026-05-08 19:45 | 49.65905 | 10.04302 | 36127 ft | 433 kts | 292° |
| 2026-05-08 19:45 | 49.68355 | 9.95855 | 36128 ft | 433 kts | 292° |
| 2026-05-08 19:46 | 49.70821 | 9.87359 | 36132 ft | 433 kts | 292° |
| 2026-05-08 19:46 | 49.74500 | 9.74596 | 36132 ft | 433 kts | 292° |
| 2026-05-08 19:47 | 49.76945 | 9.66068 | 36132 ft | 433 kts | 292° |
| 2026-05-08 19:47 | 49.79383 | 9.57532 | 36130 ft | 433 kts | 292° |
| 2026-05-08 19:48 | 49.81823 | 9.49001 | 36139 ft | 434 kts | 292° |
| 2026-05-08 19:48 | 49.84255 | 9.40451 | 36132 ft | 434 kts | 292° |
| 2026-05-08 19:49 | 49.86678 | 9.31876 | 36134 ft | 434 kts | 292° |
| 2026-05-08 19:49 | 49.89093 | 9.23293 | 36124 ft | 434 kts | 292° |
| 2026-05-08 19:50 | 49.91503 | 9.14701 | 36126 ft | 434 kts | 292° |
| 2026-05-08 19:50 | 49.93917 | 9.06099 | 36120 ft | 435 kts | 292° |
| 2026-05-08 19:51 | 49.96308 | 8.97535 | 36118 ft | 435 kts | 292° |
| 2026-05-08 19:51 | 49.98702 | 8.88899 | 36116 ft | 435 kts | 292° |
| 2026-05-08 19:52 | 50.01100 | 8.80251 | 36117 ft | 435 kts | 292° |
| 2026-05-08 19:52 | 50.03487 | 8.71606 | 36113 ft | 435 kts | 292° |
| 2026-05-08 19:53 | 50.05863 | 8.62946 | 36112 ft | 435 kts | 292° |
| 2026-05-08 19:53 | 50.08238 | 8.54280 | 36110 ft | 435 kts | 292° |
| 2026-05-08 19:54 | 50.10605 | 8.45597 | 36116 ft | 435 kts | 292° |
| 2026-05-08 19:54 | 50.12974 | 8.36902 | 36122 ft | 435 kts | 292° |
| 2026-05-08 19:55 | 50.15330 | 8.28206 | 36121 ft | 435 kts | 292° |
| 2026-05-08 19:55 | 50.17679 | 8.19493 | 36112 ft | 435 kts | 292° |
| 2026-05-08 19:56 | 50.20023 | 8.10778 | 36121 ft | 435 kts | 292° |
| 2026-05-08 19:56 | 50.22346 | 8.02102 | 36126 ft | 435 kts | 292° |
| 2026-05-08 19:57 | 50.24673 | 7.93371 | 36142 ft | 435 kts | 292° |
| 2026-05-08 19:57 | 50.26997 | 7.84619 | 36133 ft | 436 kts | 291° |
| 2026-05-08 19:58 | 50.29309 | 7.75855 | 36131 ft | 436 kts | 292° |
| 2026-05-08 19:58 | 50.31620 | 7.67079 | 36130 ft | 436 kts | 292° |
| 2026-05-08 19:59 | 50.33928 | 7.58299 | 36135 ft | 436 kts | 292° |
| 2026-05-08 19:59 | 50.36225 | 7.49506 | 36124 ft | 436 kts | 291° |
| 2026-05-08 20:00 | 50.38509 | 7.40753 | 36125 ft | 436 kts | 291° |
| 2026-05-08 20:00 | 50.40804 | 7.31946 | 36121 ft | 436 kts | 292° |
| 2026-05-08 20:01 | 50.43098 | 7.23111 | 36129 ft | 437 kts | 292° |
| 2026-05-08 20:01 | 50.45372 | 7.14278 | 36132 ft | 436 kts | 291° |
| 2026-05-08 20:02 | 50.47632 | 7.05433 | 36130 ft | 436 kts | 291° |
| 2026-05-08 20:02 | 50.49889 | 6.96579 | 36130 ft | 436 kts | 291° |
| 2026-05-08 20:03 | 50.52146 | 6.87722 | 36132 ft | 436 kts | 292° |
| 2026-05-08 20:03 | 50.54384 | 6.78923 | 36140 ft | 436 kts | 291° |
| 2026-05-08 20:04 | 50.56629 | 6.70058 | 36136 ft | 436 kts | 291° |
| 2026-05-08 20:04 | 50.58860 | 6.61190 | 36135 ft | 436 kts | 291° |
| 2026-05-08 20:05 | 50.61077 | 6.52311 | 36131 ft | 435 kts | 292° |
| 2026-05-08 20:05 | 50.63281 | 6.43473 | 36147 ft | 435 kts | 292° |
| 2026-05-08 20:06 | 50.65484 | 6.34604 | 36150 ft | 434 kts | 292° |
| 2026-05-08 20:06 | 50.67681 | 6.25753 | 36151 ft | 434 kts | 292° |
| 2026-05-08 20:07 | 50.69873 | 6.16884 | 36146 ft | 433 kts | 291° |
| 2026-05-08 20:07 | 50.72050 | 6.08023 | 36141 ft | 433 kts | 292° |
| 2026-05-08 20:08 | 50.74224 | 5.99141 | 36148 ft | 432 kts | 292° |
| 2026-05-08 20:08 | 50.76370 | 5.90345 | 36146 ft | 432 kts | 292° |
| 2026-05-08 20:09 | 50.78521 | 5.81483 | 36148 ft | 431 kts | 292° |
| 2026-05-08 20:09 | 50.80658 | 5.72620 | 36145 ft | 431 kts | 292° |
| 2026-05-08 20:10 | 50.82786 | 5.63755 | 36150 ft | 431 kts | 292° |
| 2026-05-08 20:10 | 50.84913 | 5.54899 | 36144 ft | 429 kts | 293° |
| 2026-05-08 20:11 | 50.87032 | 5.46062 | 36150 ft | 428 kts | 293° |
| 2026-05-08 20:11 | 50.89120 | 5.37305 | 36141 ft | 428 kts | 292° |
| 2026-05-08 20:12 | 50.91212 | 5.28480 | 36133 ft | 427 kts | 292° |
| 2026-05-08 20:12 | 50.93293 | 5.19654 | 36132 ft | 427 kts | 292° |
| 2026-05-08 20:13 | 50.95358 | 5.10838 | 36133 ft | 426 kts | 292° |
| 2026-05-08 20:13 | 50.97414 | 5.02034 | 36138 ft | 425 kts | 292° |
| 2026-05-08 20:14 | 50.99466 | 4.93251 | 36137 ft | 424 kts | 292° |
| 2026-05-08 20:14 | 51.01508 | 4.84465 | 36136 ft | 423 kts | 292° |
| 2026-05-08 20:15 | 51.03526 | 4.75726 | 36133 ft | 423 kts | 292° |
| 2026-05-08 20:15 | 51.05541 | 4.66945 | 36137 ft | 422 kts | 292° |
| 2026-05-08 20:16 | 51.07545 | 4.58181 | 36147 ft | 421 kts | 292° |
| 2026-05-08 20:16 | 51.09547 | 4.49429 | 36153 ft | 421 kts | 292° |
| 2026-05-08 20:17 | 51.11536 | 4.40677 | 36151 ft | 420 kts | 292° |
| 2026-05-08 20:17 | 51.13518 | 4.31919 | 36149 ft | 420 kts | 292° |
| 2026-05-08 20:18 | 51.15479 | 4.23221 | 36142 ft | 420 kts | 292° |
| 2026-05-08 20:18 | 51.17452 | 4.14469 | 36136 ft | 420 kts | 292° |
| 2026-05-08 20:19 | 51.19421 | 4.05697 | 36133 ft | 420 kts | 292° |
| 2026-05-08 20:19 | 51.21377 | 3.96918 | 36121 ft | 420 kts | 292° |
| 2026-05-08 20:20 | 51.23323 | 3.88135 | 36116 ft | 420 kts | 291° |
| 2026-05-08 20:20 | 51.24933 | 3.80830 | 36102 ft | 420 kts | 291° |
| 2026-05-08 20:21 | 51.26866 | 3.72034 | 36108 ft | 419 kts | 291° |
| 2026-05-08 20:21 | 51.28791 | 3.63260 | 36124 ft | 419 kts | 291° |
| 2026-05-08 20:22 | 51.30712 | 3.54443 | 36123 ft | 419 kts | 291° |
| 2026-05-08 20:22 | 51.32623 | 3.45630 | 36122 ft | 419 kts | 291° |
| 2026-05-08 20:23 | 51.34526 | 3.36806 | 36120 ft | 419 kts | 291° |
| 2026-05-08 20:23 | 51.36510 | 3.28031 | 36107 ft | 419 kts | 292° |
| 2026-05-08 20:24 | 51.38615 | 3.19334 | 36117 ft | 419 kts | 293° |
| 2026-05-08 20:24 | 51.40707 | 3.10631 | 36124 ft | 419 kts | 292° |
| 2026-05-08 20:25 | 51.42572 | 3.02733 | 36126 ft | 419 kts | 292° |
| 2026-05-08 20:25 | 51.44622 | 2.93976 | 36127 ft | 419 kts | 292° |
| 2026-05-08 20:26 | 51.46670 | 2.85209 | 36117 ft | 419 kts | 292° |
| 2026-05-08 20:26 | 51.48711 | 2.76451 | 36117 ft | 419 kts | 292° |
| 2026-05-08 20:27 | 51.50745 | 2.67683 | 36125 ft | 419 kts | 291° |
| 2026-05-08 20:27 | 51.52774 | 2.58891 | 36127 ft | 419 kts | 291° |
| 2026-05-08 20:28 | 51.54777 | 2.50142 | 36138 ft | 420 kts | 291° |
| 2026-05-08 20:28 | 51.56784 | 2.41346 | 36138 ft | 419 kts | 291° |
| 2026-05-08 20:29 | 51.58794 | 2.32520 | 36096 ft | 420 kts | 291° |
| 2026-05-08 20:29 | 51.59799 | 2.28116 | 35840 ft | 420 kts | 291° |
| 2026-05-08 20:29 | 51.60809 | 2.23682 | 35285 ft | 421 kts | 291° |
| 2026-05-08 20:30 | 51.61818 | 2.19241 | 34539 ft | 423 kts | 291° |
| 2026-05-08 20:30 | 51.62831 | 2.14772 | 33710 ft | 426 kts | 291° |
| 2026-05-08 20:30 | 51.63850 | 2.10268 | 32815 ft | 429 kts | 291° |
| 2026-05-08 20:30 | 51.64872 | 2.05729 | 31886 ft | 433 kts | 291° |
| 2026-05-08 20:31 | 51.65897 | 2.01151 | 30994 ft | 436 kts | 291° |
| 2026-05-08 20:31 | 51.66927 | 1.96540 | 29986 ft | 440 kts | 290° |
| 2026-05-08 20:31 | 51.67961 | 1.91898 | 29313 ft | 436 kts | 290° |
| 2026-05-08 20:31 | 51.68974 | 1.87346 | 28738 ft | 429 kts | 290° |
| 2026-05-08 20:32 | 51.69975 | 1.82848 | 28114 ft | 424 kts | 290° |
| 2026-05-08 20:32 | 51.70949 | 1.78468 | 27512 ft | 419 kts | 290° |
| 2026-05-08 20:32 | 51.71923 | 1.74066 | 26904 ft | 415 kts | 290° |
| 2026-05-08 20:32 | 51.72888 | 1.69691 | 26301 ft | 411 kts | 290° |
| 2026-05-08 20:33 | 51.73818 | 1.65340 | 25694 ft | 408 kts | 286° |
| 2026-05-08 20:33 | 51.74371 | 1.60877 | 25117 ft | 405 kts | 276° |
| 2026-05-08 20:33 | 51.74443 | 1.56328 | 24507 ft | 406 kts | 266° |
| 2026-05-08 20:33 | 51.74161 | 1.51787 | 23895 ft | 406 kts | 264° |
| 2026-05-08 20:34 | 51.73863 | 1.47256 | 23219 ft | 405 kts | 264° |
| 2026-05-08 20:34 | 51.73571 | 1.42767 | 22619 ft | 401 kts | 264° |
| 2026-05-08 20:34 | 51.73002 | 1.33893 | 21419 ft | 395 kts | 263° |
| 2026-05-08 20:35 | 51.72717 | 1.29501 | 20830 ft | 392 kts | 263° |
| 2026-05-08 20:35 | 51.72430 | 1.25140 | 20242 ft | 391 kts | 263° |
| 2026-05-08 20:35 | 51.72145 | 1.20845 | 19656 ft | 389 kts | 263° |
| 2026-05-08 20:35 | 51.71855 | 1.16510 | 19081 ft | 388 kts | 262° |
| 2026-05-08 20:36 | 51.71564 | 1.12200 | 18502 ft | 386 kts | 262° |
| 2026-05-08 20:36 | 51.71272 | 1.07904 | 17864 ft | 384 kts | 262° |
| 2026-05-08 20:36 | 51.70981 | 1.03645 | 17291 ft | 380 kts | 262° |
| 2026-05-08 20:36 | 51.70693 | 0.99434 | 16724 ft | 376 kts | 262° |
| 2026-05-08 20:37 | 51.70407 | 0.95258 | 16162 ft | 372 kts | 262° |
| 2026-05-08 20:37 | 51.70121 | 0.91126 | 15492 ft | 371 kts | 262° |
| 2026-05-08 20:37 | 51.69832 | 0.86992 | 14809 ft | 371 kts | 262° |
| 2026-05-08 20:37 | 51.69543 | 0.82863 | 14129 ft | 371 kts | 262° |
| 2026-05-08 20:38 | 51.69253 | 0.78728 | 13401 ft | 370 kts | 263° |
| 2026-05-08 20:38 | 51.68962 | 0.74621 | 12721 ft | 367 kts | 263° |
| 2026-05-08 20:38 | 51.68675 | 0.70581 | 12046 ft | 355 kts | 263° |
| 2026-05-08 20:38 | 51.68400 | 0.66721 | 11431 ft | 339 kts | 263° |
| 2026-05-08 20:39 | 51.68139 | 0.63057 | 11256 ft | 321 kts | 263° |
| 2026-05-08 20:39 | 51.67886 | 0.59543 | 11121 ft | 309 kts | 263° |
| 2026-05-08 20:39 | 51.67644 | 0.56202 | 10994 ft | 299 kts | 263° |
| 2026-05-08 20:39 | 51.67402 | 0.52886 | 10789 ft | 292 kts | 263° |
| 2026-05-08 20:40 | 51.67168 | 0.49667 | 10543 ft | 287 kts | 263° |
| 2026-05-08 20:40 | 51.66942 | 0.46550 | 10301 ft | 282 kts | 263° |
| 2026-05-08 20:40 | 51.66713 | 0.43418 | 10065 ft | 280 kts | 263° |
| 2026-05-08 20:40 | 51.66484 | 0.40298 | 9686 ft | 281 kts | 263° |
| 2026-05-08 20:41 | 51.66255 | 0.37188 | 9397 ft | 278 kts | 263° |
| 2026-05-08 20:41 | 51.66026 | 0.34101 | 9147 ft | 277 kts | 262° |
| 2026-05-08 20:41 | 51.65796 | 0.31033 | 8860 ft | 275 kts | 262° |
| 2026-05-08 20:41 | 51.65566 | 0.27964 | 8500 ft | 275 kts | 262° |
| 2026-05-08 20:42 | 51.65336 | 0.24895 | 8169 ft | 276 kts | 262° |
| 2026-05-08 20:42 | 51.65105 | 0.21828 | 7852 ft | 275 kts | 262° |
| 2026-05-08 20:42 | 51.64877 | 0.18778 | 7559 ft | 273 kts | 262° |
| 2026-05-08 20:42 | 51.64654 | 0.15794 | 7427 ft | 265 kts | 262° |
| 2026-05-08 20:43 | 51.64456 | 0.12894 | 7302 ft | 257 kts | 264° |
| 2026-05-08 20:43 | 51.64297 | 0.10076 | 7190 ft | 248 kts | 264° |
| 2026-05-08 20:43 | 51.64152 | 0.07333 | 7136 ft | 246 kts | 264° |
| 2026-05-08 20:43 | 51.64007 | 0.04594 | 7137 ft | 246 kts | 264° |
| 2026-05-08 20:44 | 51.63862 | 0.01854 | 7136 ft | 246 kts | 264° |
| 2026-05-08 20:44 | 51.63707 | -0.01000 | 7155 ft | 254 kts | 264° |
| 2026-05-08 20:44 | 51.63566 | -0.03778 | 7155 ft | 246 kts | 264° |
| 2026-05-08 20:44 | 51.63450 | -0.06070 | 7153 ft | 245 kts | 264° |
| 2026-05-08 20:45 | 51.63314 | -0.08810 | 7156 ft | 245 kts | 264° |
| 2026-05-08 20:45 | 51.63224 | -0.10617 | 7157 ft | 245 kts | 264° |
| 2026-05-08 20:45 | 51.63045 | -0.14249 | 7162 ft | 246 kts | 264° |
| 2026-05-08 20:45 | 51.62906 | -0.17028 | 7163 ft | 246 kts | 264° |
| 2026-05-08 20:46 | 51.62772 | -0.19733 | 7165 ft | 245 kts | 264° |
| 2026-05-08 20:46 | 51.62636 | -0.22471 | 7165 ft | 245 kts | 264° |
| 2026-05-08 20:46 | 51.62500 | -0.25201 | 7165 ft | 245 kts | 264° |
| 2026-05-08 20:46 | 51.62363 | -0.27937 | 7165 ft | 245 kts | 264° |
| 2026-05-08 20:47 | 51.62225 | -0.30681 | 7164 ft | 245 kts | 264° |
| 2026-05-08 20:47 | 51.62087 | -0.33419 | 7136 ft | 245 kts | 264° |
| 2026-05-08 20:47 | 51.61949 | -0.36154 | 7141 ft | 245 kts | 264° |
| 2026-05-08 20:47 | 51.61812 | -0.38896 | 7137 ft | 246 kts | 264° |
| 2026-05-08 20:48 | 51.61675 | -0.41632 | 7138 ft | 245 kts | 264° |
| 2026-05-08 20:48 | 51.61537 | -0.44370 | 7111 ft | 247 kts | 264° |
| 2026-05-08 20:48 | 51.61399 | -0.47119 | 6868 ft | 245 kts | 264° |
| 2026-05-08 20:48 | 51.61260 | -0.49842 | 6621 ft | 244 kts | 264° |
| 2026-05-08 20:49 | 51.61121 | -0.52562 | 6367 ft | 243 kts | 264° |
| 2026-05-08 20:49 | 51.60984 | -0.55268 | 6103 ft | 242 kts | 264° |
| 2026-05-08 20:49 | 51.60846 | -0.57974 | 5843 ft | 243 kts | 264° |
| 2026-05-08 20:49 | 51.60708 | -0.60663 | 5585 ft | 240 kts | 264° |
| 2026-05-08 20:50 | 51.60573 | -0.63316 | 5334 ft | 237 kts | 264° |
| 2026-05-08 20:50 | 51.60442 | -0.65909 | 5077 ft | 228 kts | 264° |
| 2026-05-08 20:50 | 51.60317 | -0.68402 | 4818 ft | 220 kts | 264° |
| 2026-05-08 20:50 | 51.60196 | -0.70841 | 4556 ft | 218 kts | 264° |
| 2026-05-08 20:51 | 51.60014 | -0.73252 | 4299 ft | 215 kts | 250° |
| 2026-05-08 20:51 | 51.59221 | -0.75157 | 4063 ft | 208 kts | 214° |
| 2026-05-08 20:51 | 51.57953 | -0.76296 | 3995 ft | 209 kts | 203° |
| 2026-05-08 20:51 | 51.56603 | -0.77244 | 3997 ft | 209 kts | 201° |
| 2026-05-08 20:52 | 51.55270 | -0.78153 | 3842 ft | 211 kts | 201° |
| 2026-05-08 20:52 | 51.53925 | -0.79072 | 3589 ft | 209 kts | 201° |
| 2026-05-08 20:52 | 51.52583 | -0.79989 | 3349 ft | 208 kts | 201° |
| 2026-05-08 20:52 | 51.51243 | -0.80849 | 3143 ft | 205 kts | 191° |
| 2026-05-08 20:53 | 51.49888 | -0.80718 | 3023 ft | 193 kts | 158° |
| 2026-05-08 20:53 | 51.48774 | -0.79666 | 3013 ft | 181 kts | 137° |
| 2026-05-08 20:53 | 51.47988 | -0.78064 | 3005 ft | 185 kts | 117° |
| 2026-05-08 20:53 | 51.47621 | -0.76093 | 2998 ft | 185 kts | 96° |
| 2026-05-08 20:54 | 51.47613 | -0.74018 | 3001 ft | 186 kts | 90° |
| 2026-05-08 20:54 | 51.47628 | -0.71965 | 2915 ft | 186 kts | 90° |
| 2026-05-08 20:54 | 51.47641 | -0.69891 | 2717 ft | 185 kts | 90° |
| 2026-05-08 20:54 | 51.47653 | -0.67837 | 2480 ft | 181 kts | 90° |
| 2026-05-08 20:55 | 51.47665 | -0.65854 | 2244 ft | 174 kts | 90° |
| 2026-05-08 20:55 | 51.47675 | -0.63944 | 2018 ft | 169 kts | 91° |
| 2026-05-08 20:55 | 51.47685 | -0.62083 | 1788 ft | 164 kts | 91° |
| 2026-05-08 20:55 | 51.47695 | -0.60308 | 1572 ft | 153 kts | 91° |
| 2026-05-08 20:56 | 51.47703 | -0.58664 | 1382 ft | 141 kts | 91° |
| 2026-05-08 20:56 | 51.47711 | -0.57139 | 1216 ft | 134 kts | 89° |
| 2026-05-08 20:56 | 51.47718 | -0.55657 | 1070 ft | 133 kts | 90° |
| 2026-05-08 20:56 | 51.47730 | -0.54182 | 894 ft | 132 kts | 89° |
| 2026-05-08 20:57 | 51.47748 | -0.52714 | 680 ft | 132 kts | 89° |
| 2026-05-08 20:57 | 51.47746 | -0.51273 | 464 ft | 130 kts | 89° |
| 2026-05-08 20:57 | 51.47749 | -0.49796 | 304 ft | 131 kts | 90° |
| 2026-05-08 20:57 | 51.47751 | -0.48361 | 126 ft | 129 kts | 89° |
| 2026-05-08 20:58 | 51.47754 | -0.47028 | 88 ft | 100 kts | 89° |
| 2026-05-08 20:58 | 51.47757 | -0.46185 | 88 ft | 52 kts | 89° |
| 2026-05-08 20:58 | 51.47745 | -0.45845 | 87 ft | 10 kts | 159° |
| 2026-05-08 20:58 | 51.47708 | -0.45887 | 90 ft | 7 kts | 221° |
| 2026-05-08 20:59 | 51.47666 | -0.45946 | 89 ft | 9 kts | 221° |
| 2026-05-08 20:59 | 51.47623 | -0.46008 | 87 ft | 0 kts | 221° |
| 2026-05-08 21:00 | 51.47611 | -0.46025 | 86 ft | 9 kts | 224° |
| 2026-05-08 21:00 | 51.47595 | -0.46232 | 90 ft | 29 kts | 270° |
| 2026-05-08 21:00 | 51.47593 | -0.46564 | 86 ft | 29 kts | 269° |
| 2026-05-08 21:00 | 51.47582 | -0.46902 | 86 ft | 29 kts | 265° |
| 2026-05-08 21:01 | 51.47582 | -0.47235 | 89 ft | 27 kts | 270° |